sensor_id;sensor_type;location;lat;lon;timestamp;temperature;humidity
20803;DHT22;10562;-33.856;151.182;2023-05-10T00:01:50;16.20;99.90
20803;DHT22;10562;-33.856;151.182;2023-05-10T00:04:22;16.30;99.90
20803;DHT22;10562;-33.856;151.182;2023-05-10T00:06:55;16.40;99.90
20803;DHT22;10562;-33.856;151.182;2023-05-10T00:09:25;16.50;99.90
20803;DHT22;10562;-33.856;151.182;2023-05-10T00:11:56;16.70;99.90
20803;DHT22;10562;-33.856;151.182;2023-05-10T02:44:45;21.30;99.90
20803;DHT22;10562;-33.856;151.182;2023-05-10T02:47:19;21.30;99.90
20803;DHT22;10562;-33.856;151.182;2023-05-10T02:49:50;21.30;99.90
20803;DHT22;10562;-33.856;151.182;2023-05-10T02:52:24;21.40;99.90
20803;DHT22;10562;-33.856;151.182;2023-05-10T02:54:58;21.50;99.90
20803;DHT22;10562;-33.856;151.182;2023-05-10T02:57:33;21.60;99.90
20803;DHT22;10562;-33.856;151.182;2023-05-10T03:00:07;21.80;99.90
20803;DHT22;10562;-33.856;151.182;2023-05-10T03:02:38;21.80;99.90
20803;DHT22;10562;-33.856;151.182;2023-05-10T03:05:09;21.70;99.90
20803;DHT22;10562;-33.856;151.182;2023-05-10T03:07:40;21.70;99.90
20803;DHT22;10562;-33.856;151.182;2023-05-10T03:10:11;21.80;99.90
20803;DHT22;10562;-33.856;151.182;2023-05-10T03:12:57;21.90;99.90
20803;DHT22;10562;-33.856;151.182;2023-05-10T03:15:42;21.80;99.90
20803;DHT22;10562;-33.856;151.182;2023-05-10T03:18:17;21.70;99.90
20803;DHT22;10562;-33.856;151.182;2023-05-10T03:20:51;21.80;99.90
20803;DHT22;10562;-33.856;151.182;2023-05-10T03:23:30;21.60;99.90
20803;DHT22;10562;-33.856;151.182;2023-05-10T03:26:04;21.50;99.90
20803;DHT22;10562;-33.856;151.182;2023-05-10T03:28:35;21.50;99.90
20803;DHT22;10562;-33.856;151.182;2023-05-10T03:31:09;21.60;99.90
20803;DHT22;10562;-33.856;151.182;2023-05-10T03:33:47;21.50;99.90
20803;DHT22;10562;-33.856;151.182;2023-05-10T03:36:19;21.50;99.90
20803;DHT22;10562;-33.856;151.182;2023-05-10T03:38:50;21.50;99.90
20803;DHT22;10562;-33.856;151.182;2023-05-10T03:41:20;21.50;99.90
20803;DHT22;10562;-33.856;151.182;2023-05-10T03:43:51;21.70;99.90
20803;DHT22;10562;-33.856;151.182;2023-05-10T03:46:24;21.60;99.90
20803;DHT22;10562;-33.856;151.182;2023-05-10T03:48:55;21.70;99.90
20803;DHT22;10562;-33.856;151.182;2023-05-10T03:51:25;21.70;99.90
20803;DHT22;10562;-33.856;151.182;2023-05-10T03:53:56;21.70;99.90
20803;DHT22;10562;-33.856;151.182;2023-05-10T03:56:27;21.60;99.90
20803;DHT22;10562;-33.856;151.182;2023-05-10T03:58:58;21.60;99.90
20803;DHT22;10562;-33.856;151.182;2023-05-10T04:01:30;21.70;99.90
20803;DHT22;10562;-33.856;151.182;2023-05-10T04:04:01;21.50;99.90
20803;DHT22;10562;-33.856;151.182;2023-05-10T04:06:32;21.60;99.90
20803;DHT22;10562;-33.856;151.182;2023-05-10T04:09:03;21.60;99.90
20803;DHT22;10562;-33.856;151.182;2023-05-10T04:11:34;21.50;99.90
20803;DHT22;10562;-33.856;151.182;2023-05-10T04:14:04;21.30;99.90
20803;DHT22;10562;-33.856;151.182;2023-05-10T04:16:37;21.30;99.90
20803;DHT22;10562;-33.856;151.182;2023-05-10T04:19:08;21.30;99.90
20803;DHT22;10562;-33.856;151.182;2023-05-10T04:21:39;21.30;99.90
20803;DHT22;10562;-33.856;151.182;2023-05-10T04:24:10;21.40;99.90
20803;DHT22;10562;-33.856;151.182;2023-05-10T04:26:40;21.20;99.90
20803;DHT22;10562;-33.856;151.182;2023-05-10T04:29:11;21.10;99.90
20803;DHT22;10562;-33.856;151.182;2023-05-10T04:31:44;21.00;99.90
20803;DHT22;10562;-33.856;151.182;2023-05-10T04:34:15;21.00;99.90
20803;DHT22;10562;-33.856;151.182;2023-05-10T04:36:45;20.90;99.90
20803;DHT22;10562;-33.856;151.182;2023-05-10T04:39:16;20.90;99.90
20803;DHT22;10562;-33.856;151.182;2023-05-10T04:41:47;20.90;99.90
20803;DHT22;10562;-33.856;151.182;2023-05-10T04:44:17;20.90;99.90
20803;DHT22;10562;-33.856;151.182;2023-05-10T04:46:50;20.80;99.90
20803;DHT22;10562;-33.856;151.182;2023-05-10T04:49:21;20.80;99.90
20803;DHT22;10562;-33.856;151.182;2023-05-10T04:51:52;20.80;99.90
20803;DHT22;10562;-33.856;151.182;2023-05-10T04:54:23;20.80;99.90
20803;DHT22;10562;-33.856;151.182;2023-05-10T04:56:54;20.70;99.90
20803;DHT22;10562;-33.856;151.182;2023-05-10T04:59:25;20.60;99.90
20803;DHT22;10562;-33.856;151.182;2023-05-10T05:01:58;20.60;99.90
20803;DHT22;10562;-33.856;151.182;2023-05-10T05:04:30;20.60;99.90
20803;DHT22;10562;-33.856;151.182;2023-05-10T05:07:01;20.60;99.90
20803;DHT22;10562;-33.856;151.182;2023-05-10T05:09:32;20.50;99.90
20803;DHT22;10562;-33.856;151.182;2023-05-10T05:12:03;20.60;99.90
20803;DHT22;10562;-33.856;151.182;2023-05-10T05:14:34;20.50;99.90
20803;DHT22;10562;-33.856;151.182;2023-05-10T05:17:06;20.50;99.90
20803;DHT22;10562;-33.856;151.182;2023-05-10T05:19:37;20.40;99.90
20803;DHT22;10562;-33.856;151.182;2023-05-10T05:22:08;20.40;99.90
20803;DHT22;10562;-33.856;151.182;2023-05-10T05:24:39;20.30;99.90
20803;DHT22;10562;-33.856;151.182;2023-05-10T05:27:10;20.20;99.90
20803;DHT22;10562;-33.856;151.182;2023-05-10T05:29:40;20.10;99.90
20803;DHT22;10562;-33.856;151.182;2023-05-10T05:32:13;20.00;99.90
20803;DHT22;10562;-33.856;151.182;2023-05-10T05:34:45;20.00;99.90
20803;DHT22;10562;-33.856;151.182;2023-05-10T05:37:17;20.00;99.90
20803;DHT22;10562;-33.856;151.182;2023-05-10T05:39:48;20.00;99.90
20803;DHT22;10562;-33.856;151.182;2023-05-10T05:42:19;19.90;99.90
20803;DHT22;10562;-33.856;151.182;2023-05-10T05:44:50;19.90;99.90
20803;DHT22;10562;-33.856;151.182;2023-05-10T05:47:23;19.90;99.90
20803;DHT22;10562;-33.856;151.182;2023-05-10T05:49:54;19.70;99.90
20803;DHT22;10562;-33.856;151.182;2023-05-10T05:52:25;19.60;99.90
20803;DHT22;10562;-33.856;151.182;2023-05-10T05:54:56;19.60;99.90
20803;DHT22;10562;-33.856;151.182;2023-05-10T05:57:27;19.50;99.90
20803;DHT22;10562;-33.856;151.182;2023-05-10T05:59:58;19.40;99.90
20803;DHT22;10562;-33.856;151.182;2023-05-10T06:02:30;19.20;99.90
20803;DHT22;10562;-33.856;151.182;2023-05-10T06:05:01;19.10;99.90
20803;DHT22;10562;-33.856;151.182;2023-05-10T06:07:32;18.90;99.90
20803;DHT22;10562;-33.856;151.182;2023-05-10T06:10:03;18.90;99.90
20803;DHT22;10562;-33.856;151.182;2023-05-10T06:12:34;18.70;99.90
20803;DHT22;10562;-33.856;151.182;2023-05-10T06:15:05;18.60;99.90
20803;DHT22;10562;-33.856;151.182;2023-05-10T06:17:38;18.50;99.90
20803;DHT22;10562;-33.856;151.182;2023-05-10T06:20:09;18.30;99.90
20803;DHT22;10562;-33.856;151.182;2023-05-10T06:22:40;18.30;99.90
20803;DHT22;10562;-33.856;151.182;2023-05-10T06:25:11;18.10;99.90
20803;DHT22;10562;-33.856;151.182;2023-05-10T06:27:42;18.00;99.90
20803;DHT22;10562;-33.856;151.182;2023-05-10T06:30:13;17.90;99.90
20803;DHT22;10562;-33.856;151.182;2023-05-10T06:32:46;17.90;99.90
20803;DHT22;10562;-33.856;151.182;2023-05-10T06:35:17;17.80;99.90
20803;DHT22;10562;-33.856;151.182;2023-05-10T06:37:48;17.70;99.90
20803;DHT22;10562;-33.856;151.182;2023-05-10T06:40:19;17.60;99.90
20803;DHT22;10562;-33.856;151.182;2023-05-10T06:42:50;17.50;99.90
20803;DHT22;10562;-33.856;151.182;2023-05-10T06:45:22;17.40;99.90
20803;DHT22;10562;-33.856;151.182;2023-05-10T06:47:54;17.30;99.90
20803;DHT22;10562;-33.856;151.182;2023-05-10T06:50:25;17.20;99.90
20803;DHT22;10562;-33.856;151.182;2023-05-10T06:52:56;17.10;99.90
20803;DHT22;10562;-33.856;151.182;2023-05-10T06:55:27;17.00;99.90
20803;DHT22;10562;-33.856;151.182;2023-05-10T06:57:58;16.90;99.90
20803;DHT22;10562;-33.856;151.182;2023-05-10T07:00:29;16.80;99.90
20803;DHT22;10562;-33.856;151.182;2023-05-10T07:03:02;16.70;99.90
20803;DHT22;10562;-33.856;151.182;2023-05-10T07:05:33;16.60;99.90
20803;DHT22;10562;-33.856;151.182;2023-05-10T07:08:04;16.50;99.90
20803;DHT22;10562;-33.856;151.182;2023-05-10T07:10:35;16.40;99.90
20803;DHT22;10562;-33.856;151.182;2023-05-10T07:13:06;16.30;99.90
20803;DHT22;10562;-33.856;151.182;2023-05-10T07:15:37;16.20;99.90
20803;DHT22;10562;-33.856;151.182;2023-05-10T07:18:10;16.20;99.90
20803;DHT22;10562;-33.856;151.182;2023-05-10T07:20:40;16.10;99.90
20803;DHT22;10562;-33.856;151.182;2023-05-10T07:23:11;16.00;99.90
20803;DHT22;10562;-33.856;151.182;2023-05-10T07:25:42;15.90;99.90
20803;DHT22;10562;-33.856;151.182;2023-05-10T07:28:15;15.90;99.90
20803;DHT22;10562;-33.856;151.182;2023-05-10T07:30:46;15.90;99.90
20803;DHT22;10562;-33.856;151.182;2023-05-10T07:33:19;15.80;99.90
20803;DHT22;10562;-33.856;151.182;2023-05-10T07:35:50;15.80;99.90
20803;DHT22;10562;-33.856;151.182;2023-05-10T07:38:21;15.90;99.90
20803;DHT22;10562;-33.856;151.182;2023-05-10T07:40:51;15.80;99.90
20803;DHT22;10562;-33.856;151.182;2023-05-10T07:43:22;15.70;99.90
20803;DHT22;10562;-33.856;151.182;2023-05-10T07:45:53;15.70;99.90
20803;DHT22;10562;-33.856;151.182;2023-05-10T07:48:27;15.70;99.90
20803;DHT22;10562;-33.856;151.182;2023-05-10T07:50:58;15.70;99.90
20803;DHT22;10562;-33.856;151.182;2023-05-10T07:53:28;15.60;99.90
20803;DHT22;10562;-33.856;151.182;2023-05-10T07:56:18;15.60;99.90
20803;DHT22;10562;-33.856;151.182;2023-05-10T07:58:49;15.50;99.90
20803;DHT22;10562;-33.856;151.182;2023-05-10T08:01:20;15.40;99.90
20803;DHT22;10562;-33.856;151.182;2023-05-10T08:03:53;15.30;99.90
20803;DHT22;10562;-33.856;151.182;2023-05-10T08:06:24;15.20;99.90
20803;DHT22;10562;-33.856;151.182;2023-05-10T08:08:57;15.10;99.90
20803;DHT22;10562;-33.856;151.182;2023-05-10T08:11:28;15.10;99.90
20803;DHT22;10562;-33.856;151.182;2023-05-10T08:13:59;15.00;99.90
20803;DHT22;10562;-33.856;151.182;2023-05-10T08:16:30;15.00;99.90
20803;DHT22;10562;-33.856;151.182;2023-05-10T08:19:04;14.90;99.90
20803;DHT22;10562;-33.856;151.182;2023-05-10T08:21:35;14.90;99.90
20803;DHT22;10562;-33.856;151.182;2023-05-10T08:24:06;14.90;99.90
20803;DHT22;10562;-33.856;151.182;2023-05-10T08:26:37;14.80;99.90
20803;DHT22;10562;-33.856;151.182;2023-05-10T08:29:07;14.80;99.90
20803;DHT22;10562;-33.856;151.182;2023-05-10T08:31:38;14.80;99.90
20803;DHT22;10562;-33.856;151.182;2023-05-10T08:34:11;14.80;99.90
20803;DHT22;10562;-33.856;151.182;2023-05-10T08:36:42;14.80;99.90
20803;DHT22;10562;-33.856;151.182;2023-05-10T08:39:13;14.80;99.90
20803;DHT22;10562;-33.856;151.182;2023-05-10T08:41:45;14.80;99.90
20803;DHT22;10562;-33.856;151.182;2023-05-10T08:44:17;14.80;99.90
20803;DHT22;10562;-33.856;151.182;2023-05-10T08:46:52;14.80;99.90
20803;DHT22;10562;-33.856;151.182;2023-05-10T08:49:28;14.70;99.90
20803;DHT22;10562;-33.856;151.182;2023-05-10T08:52:03;14.70;99.90
20803;DHT22;10562;-33.856;151.182;2023-05-10T08:54:35;14.70;99.90
20803;DHT22;10562;-33.856;151.182;2023-05-10T08:57:07;14.80;99.90
20803;DHT22;10562;-33.856;151.182;2023-05-10T08:59:38;14.70;99.90
20803;DHT22;10562;-33.856;151.182;2023-05-10T09:02:11;14.60;99.90
20803;DHT22;10562;-33.856;151.182;2023-05-10T09:04:45;14.60;99.90
20803;DHT22;10562;-33.856;151.182;2023-05-10T09:07:16;14.60;99.90
20803;DHT22;10562;-33.856;151.182;2023-05-10T09:09:47;14.50;99.90
20803;DHT22;10562;-33.856;151.182;2023-05-10T09:12:18;14.50;99.90
20803;DHT22;10562;-33.856;151.182;2023-05-10T09:14:51;14.50;99.90
20803;DHT22;10562;-33.856;151.182;2023-05-10T09:17:24;14.40;99.90
20803;DHT22;10562;-33.856;151.182;2023-05-10T09:20:01;14.40;99.90
20803;DHT22;10562;-33.856;151.182;2023-05-10T09:22:32;14.30;99.90
20803;DHT22;10562;-33.856;151.182;2023-05-10T09:25:09;14.30;99.90
20803;DHT22;10562;-33.856;151.182;2023-05-10T09:27:41;14.30;99.90
20803;DHT22;10562;-33.856;151.182;2023-05-10T09:30:16;14.20;99.90
20803;DHT22;10562;-33.856;151.182;2023-05-10T09:32:48;14.20;99.90
20803;DHT22;10562;-33.856;151.182;2023-05-10T09:35:23;14.10;99.90
20803;DHT22;10562;-33.856;151.182;2023-05-10T09:37:55;14.10;99.90
20803;DHT22;10562;-33.856;151.182;2023-05-10T09:40:27;14.00;99.90
20803;DHT22;10562;-33.856;151.182;2023-05-10T09:42:59;13.90;99.90
20803;DHT22;10562;-33.856;151.182;2023-05-10T09:45:31;13.90;99.90
20803;DHT22;10562;-33.856;151.182;2023-05-10T09:48:03;13.90;99.90
20803;DHT22;10562;-33.856;151.182;2023-05-10T09:50:35;13.90;99.90
20803;DHT22;10562;-33.856;151.182;2023-05-10T09:53:06;13.90;99.90
20803;DHT22;10562;-33.856;151.182;2023-05-10T09:55:41;13.90;99.90
20803;DHT22;10562;-33.856;151.182;2023-05-10T09:58:12;13.90;99.90
20803;DHT22;10562;-33.856;151.182;2023-05-10T10:00:44;13.90;99.90
20803;DHT22;10562;-33.856;151.182;2023-05-10T10:03:15;13.90;99.90
20803;DHT22;10562;-33.856;151.182;2023-05-10T10:05:49;13.90;99.90
20803;DHT22;10562;-33.856;151.182;2023-05-10T10:08:21;13.90;99.90
20803;DHT22;10562;-33.856;151.182;2023-05-10T10:10:52;14.00;99.90
20803;DHT22;10562;-33.856;151.182;2023-05-10T10:13:22;13.90;99.90
20803;DHT22;10562;-33.856;151.182;2023-05-10T10:15:53;13.90;99.90
20803;DHT22;10562;-33.856;151.182;2023-05-10T10:18:24;13.80;99.90
20803;DHT22;10562;-33.856;151.182;2023-05-10T10:20:58;13.80;99.90
20803;DHT22;10562;-33.856;151.182;2023-05-10T10:23:29;13.70;99.90
20803;DHT22;10562;-33.856;151.182;2023-05-10T10:26:00;13.70;99.90
20803;DHT22;10562;-33.856;151.182;2023-05-10T10:28:36;13.70;99.90
20803;DHT22;10562;-33.856;151.182;2023-05-10T10:31:17;13.60;99.90
20803;DHT22;10562;-33.856;151.182;2023-05-10T10:34:06;13.60;99.90
20803;DHT22;10562;-33.856;151.182;2023-05-10T10:36:45;13.60;99.90
20803;DHT22;10562;-33.856;151.182;2023-05-10T10:39:16;13.50;99.90
20803;DHT22;10562;-33.856;151.182;2023-05-10T10:41:51;13.50;99.90
20803;DHT22;10562;-33.856;151.182;2023-05-10T10:44:27;13.50;99.90
20803;DHT22;10562;-33.856;151.182;2023-05-10T10:47:05;13.70;99.90
20803;DHT22;10562;-33.856;151.182;2023-05-10T10:49:42;13.80;99.90
20803;DHT22;10562;-33.856;151.182;2023-05-10T10:52:23;13.70;99.90
20803;DHT22;10562;-33.856;151.182;2023-05-10T10:55:00;13.70;99.90
20803;DHT22;10562;-33.856;151.182;2023-05-10T10:57:35;13.60;99.90
20803;DHT22;10562;-33.856;151.182;2023-05-10T11:00:24;13.50;99.90
20803;DHT22;10562;-33.856;151.182;2023-05-10T11:02:58;13.50;99.90
20803;DHT22;10562;-33.856;151.182;2023-05-10T11:05:46;13.40;99.90
20803;DHT22;10562;-33.856;151.182;2023-05-10T11:08:26;13.30;99.90
20803;DHT22;10562;-33.856;151.182;2023-05-10T11:11:08;13.30;99.90
20803;DHT22;10562;-33.856;151.182;2023-05-10T11:13:42;13.30;99.90
20803;DHT22;10562;-33.856;151.182;2023-05-10T11:16:17;13.20;99.90
20803;DHT22;10562;-33.856;151.182;2023-05-10T11:18:57;13.20;99.90
20803;DHT22;10562;-33.856;151.182;2023-05-10T11:21:29;13.10;99.90
20803;DHT22;10562;-33.856;151.182;2023-05-10T11:24:09;13.10;99.90
20803;DHT22;10562;-33.856;151.182;2023-05-10T11:26:43;13.00;99.90
20803;DHT22;10562;-33.856;151.182;2023-05-10T11:29:14;13.00;99.90
20803;DHT22;10562;-33.856;151.182;2023-05-10T11:31:45;13.20;99.90
20803;DHT22;10562;-33.856;151.182;2023-05-10T11:34:25;13.10;99.90
20803;DHT22;10562;-33.856;151.182;2023-05-10T11:36:56;13.10;99.90
20803;DHT22;10562;-33.856;151.182;2023-05-10T11:39:30;13.10;99.90
20803;DHT22;10562;-33.856;151.182;2023-05-10T11:42:01;13.10;99.90
20803;DHT22;10562;-33.856;151.182;2023-05-10T11:44:32;13.10;99.90
20803;DHT22;10562;-33.856;151.182;2023-05-10T11:47:03;13.10;99.90
20803;DHT22;10562;-33.856;151.182;2023-05-10T11:49:36;13.10;99.90
20803;DHT22;10562;-33.856;151.182;2023-05-10T11:52:07;13.10;99.90
20803;DHT22;10562;-33.856;151.182;2023-05-10T11:54:46;13.00;99.90
20803;DHT22;10562;-33.856;151.182;2023-05-10T11:57:25;12.90;99.90
20803;DHT22;10562;-33.856;151.182;2023-05-10T11:59:58;13.00;99.90
20803;DHT22;10562;-33.856;151.182;2023-05-10T12:02:30;13.10;99.90
20803;DHT22;10562;-33.856;151.182;2023-05-10T12:05:01;13.10;99.90
20803;DHT22;10562;-33.856;151.182;2023-05-10T12:07:33;13.10;99.90
20803;DHT22;10562;-33.856;151.182;2023-05-10T12:10:10;13.10;99.90
20803;DHT22;10562;-33.856;151.182;2023-05-10T12:12:42;13.00;99.90
20803;DHT22;10562;-33.856;151.182;2023-05-10T12:15:17;12.90;99.90
20803;DHT22;10562;-33.856;151.182;2023-05-10T12:17:48;12.80;99.90
20803;DHT22;10562;-33.856;151.182;2023-05-10T12:20:20;12.80;99.90
20803;DHT22;10562;-33.856;151.182;2023-05-10T12:22:52;12.70;99.90
20803;DHT22;10562;-33.856;151.182;2023-05-10T12:25:29;12.70;99.90
20803;DHT22;10562;-33.856;151.182;2023-05-10T12:28:02;12.60;99.90
20803;DHT22;10562;-33.856;151.182;2023-05-10T12:30:34;12.50;99.90
20803;DHT22;10562;-33.856;151.182;2023-05-10T12:33:10;12.50;99.90
20803;DHT22;10562;-33.856;151.182;2023-05-10T12:35:46;12.50;99.90
20803;DHT22;10562;-33.856;151.182;2023-05-10T12:38:30;12.40;99.90
20803;DHT22;10562;-33.856;151.182;2023-05-10T12:41:05;12.30;99.90
20803;DHT22;10562;-33.856;151.182;2023-05-10T12:43:36;12.30;99.90
20803;DHT22;10562;-33.856;151.182;2023-05-10T12:46:08;12.30;99.90
20803;DHT22;10562;-33.856;151.182;2023-05-10T12:48:39;12.30;99.90
20803;DHT22;10562;-33.856;151.182;2023-05-10T12:51:10;12.30;99.90
20803;DHT22;10562;-33.856;151.182;2023-05-10T12:53:43;12.20;99.90
20803;DHT22;10562;-33.856;151.182;2023-05-10T12:56:17;12.20;99.90
20803;DHT22;10562;-33.856;151.182;2023-05-10T12:58:48;12.10;99.90
20803;DHT22;10562;-33.856;151.182;2023-05-10T13:01:19;12.10;99.90
20803;DHT22;10562;-33.856;151.182;2023-05-10T13:03:50;12.00;99.90
20803;DHT22;10562;-33.856;151.182;2023-05-10T13:06:20;12.00;99.90
20803;DHT22;10562;-33.856;151.182;2023-05-10T13:08:51;11.90;99.90
20803;DHT22;10562;-33.856;151.182;2023-05-10T13:11:24;11.90;99.90
20803;DHT22;10562;-33.856;151.182;2023-05-10T13:13:55;11.90;99.90
20803;DHT22;10562;-33.856;151.182;2023-05-10T13:16:25;11.80;99.90
20803;DHT22;10562;-33.856;151.182;2023-05-10T13:18:56;11.80;99.90
20803;DHT22;10562;-33.856;151.182;2023-05-10T13:21:27;11.80;99.90
20803;DHT22;10562;-33.856;151.182;2023-05-10T13:23:58;11.80;99.90
20803;DHT22;10562;-33.856;151.182;2023-05-10T13:26:31;11.70;99.90
20803;DHT22;10562;-33.856;151.182;2023-05-10T13:29:02;11.70;99.90
20803;DHT22;10562;-33.856;151.182;2023-05-10T13:31:32;11.70;99.90
20803;DHT22;10562;-33.856;151.182;2023-05-10T13:34:03;11.70;99.90
20803;DHT22;10562;-33.856;151.182;2023-05-10T13:36:34;11.70;99.90
20803;DHT22;10562;-33.856;151.182;2023-05-10T13:39:05;11.70;99.90
20803;DHT22;10562;-33.856;151.182;2023-05-10T13:41:38;11.60;99.90
20803;DHT22;10562;-33.856;151.182;2023-05-10T13:44:08;11.60;99.90
20803;DHT22;10562;-33.856;151.182;2023-05-10T13:46:39;11.60;99.90
20803;DHT22;10562;-33.856;151.182;2023-05-10T13:49:10;11.60;99.90
20803;DHT22;10562;-33.856;151.182;2023-05-10T13:51:42;11.50;99.90
20803;DHT22;10562;-33.856;151.182;2023-05-10T13:54:12;11.50;99.90
20803;DHT22;10562;-33.856;151.182;2023-05-10T13:56:47;11.50;99.90
20803;DHT22;10562;-33.856;151.182;2023-05-10T13:59:17;11.50;99.90
20803;DHT22;10562;-33.856;151.182;2023-05-10T14:01:48;11.50;99.90
20803;DHT22;10562;-33.856;151.182;2023-05-10T14:04:19;11.50;99.90
20803;DHT22;10562;-33.856;151.182;2023-05-10T14:06:50;11.50;99.90
20803;DHT22;10562;-33.856;151.182;2023-05-10T14:09:21;11.50;99.90
20803;DHT22;10562;-33.856;151.182;2023-05-10T14:11:53;11.50;99.90
20803;DHT22;10562;-33.856;151.182;2023-05-10T14:14:24;11.50;99.90
20803;DHT22;10562;-33.856;151.182;2023-05-10T14:16:56;11.50;99.90
20803;DHT22;10562;-33.856;151.182;2023-05-10T14:19:27;11.50;99.90
20803;DHT22;10562;-33.856;151.182;2023-05-10T14:22:00;11.40;99.90
20803;DHT22;10562;-33.856;151.182;2023-05-10T14:24:30;11.40;99.90
20803;DHT22;10562;-33.856;151.182;2023-05-10T14:27:03;11.40;99.90
20803;DHT22;10562;-33.856;151.182;2023-05-10T14:29:34;11.60;99.90
20803;DHT22;10562;-33.856;151.182;2023-05-10T14:32:05;11.60;99.90
20803;DHT22;10562;-33.856;151.182;2023-05-10T14:34:35;11.60;99.90
20803;DHT22;10562;-33.856;151.182;2023-05-10T14:37:06;11.70;99.90
20803;DHT22;10562;-33.856;151.182;2023-05-10T14:39:37;11.70;99.90
20803;DHT22;10562;-33.856;151.182;2023-05-10T14:42:09;11.60;99.90
20803;DHT22;10562;-33.856;151.182;2023-05-10T14:44:40;11.60;99.90
20803;DHT22;10562;-33.856;151.182;2023-05-10T14:47:11;11.60;99.90
20803;DHT22;10562;-33.856;151.182;2023-05-10T14:49:42;11.60;99.90
20803;DHT22;10562;-33.856;151.182;2023-05-10T14:52:12;11.60;99.90
20803;DHT22;10562;-33.856;151.182;2023-05-10T14:54:43;11.60;99.90
20803;DHT22;10562;-33.856;151.182;2023-05-10T14:57:16;11.70;99.90
20803;DHT22;10562;-33.856;151.182;2023-05-10T14:59:47;11.80;99.90
20803;DHT22;10562;-33.856;151.182;2023-05-10T15:02:17;11.90;99.90
20803;DHT22;10562;-33.856;151.182;2023-05-10T15:04:48;11.90;99.90
20803;DHT22;10562;-33.856;151.182;2023-05-10T15:07:19;12.00;99.90
20803;DHT22;10562;-33.856;151.182;2023-05-10T15:09:50;12.00;99.90
20803;DHT22;10562;-33.856;151.182;2023-05-10T15:12:23;12.00;99.90
20803;DHT22;10562;-33.856;151.182;2023-05-10T15:14:54;12.00;99.90
20803;DHT22;10562;-33.856;151.182;2023-05-10T15:17:25;12.00;99.90
20803;DHT22;10562;-33.856;151.182;2023-05-10T15:19:56;12.00;99.90
20803;DHT22;10562;-33.856;151.182;2023-05-10T15:22:28;12.00;99.90
20803;DHT22;10562;-33.856;151.182;2023-05-10T15:24:59;12.00;99.90
20803;DHT22;10562;-33.856;151.182;2023-05-10T15:27:32;12.00;99.90
20803;DHT22;10562;-33.856;151.182;2023-05-10T15:30:03;12.00;99.90
20803;DHT22;10562;-33.856;151.182;2023-05-10T15:32:34;12.00;99.90
20803;DHT22;10562;-33.856;151.182;2023-05-10T15:35:05;12.00;99.90
20803;DHT22;10562;-33.856;151.182;2023-05-10T15:37:36;11.90;99.90
20803;DHT22;10562;-33.856;151.182;2023-05-10T15:40:07;11.90;99.90
20803;DHT22;10562;-33.856;151.182;2023-05-10T15:42:40;11.80;99.90
20803;DHT22;10562;-33.856;151.182;2023-05-10T15:45:11;11.70;99.90
20803;DHT22;10562;-33.856;151.182;2023-05-10T15:47:42;11.70;99.90
20803;DHT22;10562;-33.856;151.182;2023-05-10T15:50:14;11.60;99.90
20803;DHT22;10562;-33.856;151.182;2023-05-10T15:52:45;11.60;99.90
20803;DHT22;10562;-33.856;151.182;2023-05-10T15:55:16;11.60;99.90
20803;DHT22;10562;-33.856;151.182;2023-05-10T15:57:49;11.70;99.90
20803;DHT22;10562;-33.856;151.182;2023-05-10T16:00:20;11.70;99.90
20803;DHT22;10562;-33.856;151.182;2023-05-10T16:02:52;11.80;99.90
20803;DHT22;10562;-33.856;151.182;2023-05-10T16:05:23;11.80;99.90
20803;DHT22;10562;-33.856;151.182;2023-05-10T16:07:54;11.80;99.90
20803;DHT22;10562;-33.856;151.182;2023-05-10T16:10:25;11.80;99.90
20803;DHT22;10562;-33.856;151.182;2023-05-10T16:12:57;11.80;99.90
20803;DHT22;10562;-33.856;151.182;2023-05-10T16:15:29;11.80;99.90
20803;DHT22;10562;-33.856;151.182;2023-05-10T16:17:59;11.90;99.90
20803;DHT22;10562;-33.856;151.182;2023-05-10T16:20:31;11.90;99.90
20803;DHT22;10562;-33.856;151.182;2023-05-10T16:23:03;11.80;99.90
20803;DHT22;10562;-33.856;151.182;2023-05-10T16:25:34;11.80;99.90
20803;DHT22;10562;-33.856;151.182;2023-05-10T16:28:07;11.90;99.90
20803;DHT22;10562;-33.856;151.182;2023-05-10T16:30:38;12.00;99.90
20803;DHT22;10562;-33.856;151.182;2023-05-10T16:33:08;12.10;99.90
20803;DHT22;10562;-33.856;151.182;2023-05-10T16:35:39;12.20;99.90
20803;DHT22;10562;-33.856;151.182;2023-05-10T16:38:10;12.20;99.90
20803;DHT22;10562;-33.856;151.182;2023-05-10T16:40:41;12.30;99.90
20803;DHT22;10562;-33.856;151.182;2023-05-10T16:43:14;12.40;99.90
20803;DHT22;10562;-33.856;151.182;2023-05-10T16:45:46;12.40;99.90
20803;DHT22;10562;-33.856;151.182;2023-05-10T16:48:16;12.40;99.90
20803;DHT22;10562;-33.856;151.182;2023-05-10T16:50:47;12.40;99.90
20803;DHT22;10562;-33.856;151.182;2023-05-10T16:53:18;12.40;99.90
20803;DHT22;10562;-33.856;151.182;2023-05-10T16:55:49;12.50;99.90
20803;DHT22;10562;-33.856;151.182;2023-05-10T16:58:21;12.50;99.90
20803;DHT22;10562;-33.856;151.182;2023-05-10T17:00:52;12.40;99.90
20803;DHT22;10562;-33.856;151.182;2023-05-10T17:03:23;12.40;99.90
20803;DHT22;10562;-33.856;151.182;2023-05-10T17:05:54;12.40;99.90
20803;DHT22;10562;-33.856;151.182;2023-05-10T17:08:25;12.40;99.90
20803;DHT22;10562;-33.856;151.182;2023-05-10T17:10:56;12.40;99.90
20803;DHT22;10562;-33.856;151.182;2023-05-10T17:13:32;12.40;99.90
20803;DHT22;10562;-33.856;151.182;2023-05-10T17:16:02;12.50;99.90
20803;DHT22;10562;-33.856;151.182;2023-05-10T17:18:34;12.50;99.90
20803;DHT22;10562;-33.856;151.182;2023-05-10T17:21:05;12.40;99.90
20803;DHT22;10562;-33.856;151.182;2023-05-10T17:23:36;12.50;99.90
20803;DHT22;10562;-33.856;151.182;2023-05-10T17:26:07;12.40;99.90
20803;DHT22;10562;-33.856;151.182;2023-05-10T17:28:39;12.50;99.90
20803;DHT22;10562;-33.856;151.182;2023-05-10T17:31:10;12.50;99.90
20803;DHT22;10562;-33.856;151.182;2023-05-10T17:33:41;12.50;99.90
20803;DHT22;10562;-33.856;151.182;2023-05-10T17:36:12;12.40;99.90
20803;DHT22;10562;-33.856;151.182;2023-05-10T17:38:42;12.40;99.90
20803;DHT22;10562;-33.856;151.182;2023-05-10T17:41:13;12.40;99.90
20803;DHT22;10562;-33.856;151.182;2023-05-10T17:43:46;12.30;99.90
20803;DHT22;10562;-33.856;151.182;2023-05-10T17:46:17;12.30;99.90
20803;DHT22;10562;-33.856;151.182;2023-05-10T17:48:48;12.30;99.90